Time;durP1;ratioP1;P1;durP2;ratioP2;P2;SDS_P1;SDS_P2;PMS_P1;PMS_P2;Temp;Humidity;BMP_temperature;BMP_pressure;BME280_temperature;BME280_humidity;BME280_pressure;Samples;Min_cycle;Max_cycle;Signal;HPM_P1;HPM_P2
2022/10/01 00:00:16;;;;;;;10.23;7.30;;;11.70;99.90;;;;;;5026134;28;20037;-73
2022/10/01 00:02:42;;;;;;;11.35;7.30;;;11.60;99.90;;;;;;5015868;28;20410;-73
2022/10/01 00:05:11;;;;;;;8.23;6.50;;;11.70;99.90;;;;;;5033127;28;20519;-74
2022/10/01 00:07:41;;;;;;;8.75;7.30;;;11.70;99.90;;;;;;5016066;28;20037;-73
2022/10/01 00:10:09;;;;;;;9.35;7.43;;;11.70;99.90;;;;;;5033694;28;20043;-73
2022/10/01 00:12:35;;;;;;;9.90;7.55;;;11.70;99.90;;;;;;4999257;28;20523;-73
2022/10/01 00:15:02;;;;;;;9.95;6.85;;;11.70;99.90;;;;;;5015305;28;20080;-73
2022/10/01 00:17:27;;;;;;;9.77;7.40;;;11.60;99.90;;;;;;5015578;28;20043;-73
2022/10/01 00:19:53;;;;;;;10.35;7.53;;;11.60;99.90;;;;;;4999210;28;20091;-73
2022/10/01 00:22:19;;;;;;;12.05;7.75;;;11.60;99.90;;;;;;5033153;28;20038;-73
2022/10/01 00:24:48;;;;;;;8.85;7.80;;;11.60;99.90;;;;;;5033163;28;20029;-73
2022/10/01 00:27:13;;;;;;;11.50;7.88;;;11.50;99.90;;;;;;5019169;28;20038;-73
2022/10/01 00:29:39;;;;;;;9.73;8.10;;;11.50;99.90;;;;;;4995831;28;20042;-73
2022/10/01 00:32:05;;;;;;;8.98;7.78;;;;;;;;;;4995596;28;20042;-73
2022/10/01 00:34:31;;;;;;;9.10;7.80;;;;;;;;;;4995338;28;20049;-74
2022/10/01 00:36:57;;;;;;;11.40;9.07;;;11.50;99.90;;;;;;4995735;28;20424;-73
2022/10/01 00:39:23;;;;;;;11.32;7.80;;;11.50;99.90;;;;;;5013220;28;20073;-73
2022/10/01 00:41:49;;;;;;;9.98;7.60;;;;;;;;;;5012785;28;20557;-73
2022/10/01 00:44:25;;;;;;;8.35;7.20;;;;;;;;;;4995123;28;20128;-73
2022/10/01 00:46:52;;;;;;;9.20;8.20;;;11.60;99.90;;;;;;4995809;28;20049;-73
2022/10/01 00:49:20;;;;;;;10.63;8.10;;;;;;;;;;5012869;28;20116;-73
2022/10/01 00:51:51;;;;;;;8.90;8.00;;;11.50;99.90;;;;;;4995584;28;20459;-74
2022/10/01 00:54:29;;;;;;;9.23;7.75;;;11.40;99.90;;;;;;4995243;28;20123;-73
2022/10/01 00:56:58;;;;;;;10.60;7.40;;;11.50;99.90;;;;;;4979174;28;20033;-73
2022/10/01 00:59:25;;;;;;;8.48;7.20;;;11.50;99.90;;;;;;5001942;28;20414;-73
2022/10/01 01:01:51;;;;;;;9.88;7.60;;;;;;;;;;5032693;28;20037;-74
2022/10/01 01:04:17;;;;;;;11.82;7.25;;;;;;;;;;5032255;28;20040;-73
2022/10/01 01:06:56;;;;;;;9.52;8.10;;;11.50;99.90;;;;;;5032527;28;20096;-73
2022/10/01 01:09:32;;;;;;;9.02;7.68;;;11.40;99.90;;;;;;5015095;28;20594;-73
2022/10/01 01:12:28;;;;;;;9.90;7.50;;;11.60;99.90;;;;;;5014520;28;20079;-73
2022/10/01 01:15:22;;;;;;;7.72;6.93;;;11.50;99.90;;;;;;5014309;28;20052;-73
2022/10/01 01:18:00;;;;;;;7.60;6.90;;;11.40;99.90;;;;;;5032306;28;20403;-73
2022/10/01 01:20:40;;;;;;;8.10;7.07;;;11.60;99.90;;;;;;5032083;28;20053;-73
2022/10/01 01:23:15;;;;;;;7.72;6.80;;;11.60;99.90;;;;;;5014772;28;20124;-73
2022/10/01 01:26:06;;;;;;;10.25;7.68;;;11.60;99.90;;;;;;4997978;28;20041;-73
2022/10/01 01:28:38;;;;;;;7.50;6.70;;;11.50;99.90;;;;;;5014423;28;20041;-74
2022/10/01 01:31:13;;;;;;;8.40;6.65;;;11.40;99.90;;;;;;5014419;28;20044;-73
2022/10/01 01:33:41;;;;;;;8.00;7.20;;;11.60;99.90;;;;;;5012567;28;20052;-74
2022/10/01 01:36:15;;;;;;;7.45;6.70;;;11.60;99.90;;;;;;4994417;28;20585;-74
2022/10/01 01:38:48;;;;;;;11.13;7.38;;;11.70;99.90;;;;;;4994739;28;20046;-75
2022/10/01 01:41:15;;;;;;;;;;;11.40;99.90;;;;;;4994879;28;20507;-74
2022/10/01 01:43:50;;;;;;;9.55;6.88;;;;;;;;;;4995112;28;19918;-75
2022/10/01 01:46:17;;;;;;;7.57;6.50;;;;;;;;;;4994857;28;20050;-73
2022/10/01 01:48:48;;;;;;;8.77;6.57;;;11.20;99.90;;;;;;4994514;28;20049;-73
2022/10/01 01:51:13;;;;;;;8.38;6.70;;;;;;;;;;5012074;28;20038;-73
2022/10/01 01:53:40;;;;;;;7.82;5.90;;;11.50;99.90;;;;;;5011515;28;20048;-73
2022/10/01 01:56:06;;;;;;;7.32;5.68;;;11.40;99.90;;;;;;5011464;28;20435;-73
2022/10/01 01:58:34;;;;;;;7.15;5.65;;;11.70;99.90;;;;;;5013979;28;20124;-73
2022/10/01 02:01:01;;;;;;;6.57;5.88;;;11.50;99.90;;;;;;5013838;28;20128;-73
2022/10/01 02:03:29;;;;;;;7.05;5.57;;;11.50;99.90;;;;;;5013984;28;20037;-73
2022/10/01 02:06:09;;;;;;;6.10;5.43;;;11.60;99.90;;;;;;5013587;28;20041;-73
2022/10/01 02:08:45;;;;;;;7.25;5.95;;;11.50;99.90;;;;;;5011738;28;20041;-73
2022/10/01 02:11:36;;;;;;;6.65;5.80;;;11.60;99.90;;;;;;5011912;28;20042;-70
2022/10/01 02:14:27;;;;;;;9.07;5.72;;;11.70;99.90;;;;;;4993959;28;20081;-71
2022/10/01 02:17:00;;;;;;;7.35;5.10;;;11.40;99.90;;;;;;4994503;28;20507;-70
2022/10/01 02:19:43;;;;;;;7.60;5.38;;;11.40;99.90;;;;;;4985378;28;20139;-70
2022/10/01 02:22:21;;;;;;;8.13;5.10;;;11.40;99.90;;;;;;5012313;28;20419;-71
2022/10/01 02:24:55;;;;;;;7.15;4.70;;;11.50;99.90;;;;;;5031159;28;20117;-71
2022/10/01 02:27:39;;;;;;;5.30;4.57;;;;;;;;;;5013687;28;20048;-73
2022/10/01 02:30:08;;;;;;;7.97;5.20;;;11.70;99.90;;;;;;5014042;28;20526;-73
2022/10/01 02:32:37;;;;;;;6.00;4.57;;;11.60;99.90;;;;;;5031255;28;20128;-72
2022/10/01 02:35:06;;;;;;;6.57;4.53;;;11.70;99.90;;;;;;5031064;28;20419;-73
2022/10/01 02:37:34;;;;;;;5.10;4.18;;;11.70;99.90;;;;;;5031247;28;20041;-73
2022/10/01 02:40:03;;;;;;;4.97;4.43;;;11.60;99.90;;;;;;5013575;28;20050;-73
2022/10/01 02:42:29;;;;;;;5.78;4.57;;;11.70;99.90;;;;;;5013689;28;20041;-72
2022/10/01 02:45:01;;;;;;;5.65;3.88;;;11.50;99.90;;;;;;4999359;28;20137;-73
2022/10/01 02:47:33;;;;;;;5.32;3.85;;;11.70;99.90;;;;;;4993977;28;20045;-73
2022/10/01 02:50:03;;;;;;;4.30;3.90;;;11.50;99.90;;;;;;5011307;28;20046;-73
2022/10/01 02:52:44;;;;;;;5.13;3.80;;;11.60;99.90;;;;;;4977648;28;20042;-73
2022/10/01 02:55:13;;;;;;;4.85;3.80;;;11.70;99.90;;;;;;5011299;28;20077;-72
2022/10/01 02:57:39;;;;;;;4.35;3.90;;;;;;;;;;4994103;28;20088;-73
2022/10/01 03:00:07;;;;;;;4.35;3.65;;;;;;;;;;5011255;28;20092;-73
2022/10/01 03:02:33;;;;;;;5.03;4.15;;;;;;;;;;4993696;28;20050;-73
2022/10/01 03:04:59;;;;;;;4.32;3.50;;;;;;;;;;5011353;28;20512;-73
2022/10/01 03:07:27;;;;;;;4.13;3.35;;;11.50;99.90;;;;;;4997550;28;20404;-73
2022/10/01 03:09:53;;;;;;;7.22;3.20;;;;;;;;;;4997278;28;20515;-72
2022/10/01 03:12:19;;;;;;;5.00;3.20;;;11.70;99.90;;;;;;4997354;28;20077;-73
2022/10/01 03:14:45;;;;;;;4.57;2.63;;;11.70;99.90;;;;;;4996917;28;20077;-73
2022/10/01 03:17:12;;;;;;;3.70;2.85;;;11.80;99.90;;;;;;4997085;28;20038;-72
2022/10/01 03:19:39;;;;;;;2.95;2.58;;;;;;;;;;5008774;28;20072;-73
2022/10/01 03:22:05;;;;;;;3.47;2.60;;;11.60;99.90;;;;;;5034408;28;20045;-72
2022/10/01 03:24:31;;;;;;;4.30;2.65;;;11.80;99.90;;;;;;5011484;28;20038;-72
2022/10/01 03:26:56;;;;;;;2.30;2.10;;;11.80;99.90;;;;;;5003946;28;20033;-72
2022/10/01 03:29:26;;;;;;;2.25;2.05;;;11.70;99.90;;;;;;5028819;28;20041;-73
2022/10/01 03:31:52;;;;;;;2.40;2.15;;;11.80;99.90;;;;;;5014427;28;20041;-73
2022/10/01 03:34:18;;;;;;;2.80;2.50;;;11.70;99.90;;;;;;5014276;28;20045;-72
2022/10/01 03:36:43;;;;;;;3.40;2.33;;;11.70;99.90;;;;;;4996854;28;20040;-72
2022/10/01 03:39:09;;;;;;;2.40;2.15;;;;;;;;;;4996969;28;20038;-72
2022/10/01 03:41:36;;;;;;;2.75;2.40;;;;;;;;;;5014287;28;20545;-73
2022/10/01 03:44:02;;;;;;;3.72;2.47;;;11.80;99.90;;;;;;5012084;28;20041;-73
2022/10/01 03:46:28;;;;;;;4.47;2.25;;;11.80;99.90;;;;;;5016415;28;20079;-73
2022/10/01 03:48:56;;;;;;;3.22;2.10;;;11.80;99.90;;;;;;5016204;28;20068;-73
2022/10/01 03:51:22;;;;;;;3.38;2.33;;;11.80;99.90;;;;;;5015995;28;20121;-73
2022/10/01 03:53:48;;;;;;;2.97;2.25;;;11.80;99.90;;;;;;5015985;28;20491;-72
2022/10/01 03:56:14;;;;;;;2.10;1.90;;;;;;;;;;5015949;28;20116;-73
2022/10/01 03:58:40;;;;;;;2.60;2.40;;;;;;;;;;5013755;28;20033;-73
2022/10/01 04:01:06;;;;;;;2.97;2.60;;;;;;;;;;5015243;28;20414;-73
2022/10/01 04:03:32;;;;;;;3.92;2.63;;;;;;;;;;5015881;28;20045;-74
2022/10/01 04:05:58;;;;;;;3.72;2.72;;;11.80;99.90;;;;;;5015570;28;20046;-72
2022/10/01 04:08:24;;;;;;;2.67;2.47;;;11.90;99.90;;;;;;5015785;28;20069;-72
2022/10/01 04:10:50;;;;;;;2.70;2.50;;;;;;;;;;5015632;28;20042;-72
2022/10/01 04:13:16;;;;;;;3.35;3.03;;;12.00;99.90;;;;;;5033424;28;20037;-72
2022/10/01 04:15:42;;;;;;;3.78;2.90;;;11.90;99.90;;;;;;5027469;28;20272;-72
2022/10/01 04:18:08;;;;;;;2.78;2.58;;;;;;;;;;4996845;28;20554;-72
2022/10/01 04:20:36;;;;;;;5.25;2.85;;;11.80;99.90;;;;;;4995851;28;20408;-73
2022/10/01 04:23:03;;;;;;;2.90;2.60;;;11.80;99.90;;;;;;5013560;28;20049;-73
2022/10/01 04:25:29;;;;;;;3.45;2.83;;;;;;;;;;5013124;28;20048;-72
2022/10/01 04:27:55;;;;;;;3.42;2.97;;;;;;;;;;4995628;28;20045;-73
2022/10/01 04:30:22;;;;;;;3.05;2.55;;;;;;;;;;4995876;28;20041;-73
2022/10/01 04:32:48;;;;;;;3.63;3.13;;;;;;;;;;5007182;28;20099;-72
2022/10/01 04:35:14;;;;;;;3.30;3.00;;;;;;;;;;5032841;28;20049;-72
2022/10/01 04:37:40;;;;;;;3.33;3.00;;;11.90;99.90;;;;;;5015226;28;20045;-73
2022/10/01 04:40:06;;;;;;;5.72;3.28;;;11.90;99.90;;;;;;5015197;28;20569;-72
2022/10/01 04:42:32;;;;;;;5.25;3.83;;;;;;;;;;5015162;28;20739;-72
2022/10/01 04:44:58;;;;;;;4.60;3.50;;;;;;;;;;5014867;28;20503;-73
2022/10/01 04:47:24;;;;;;;4.18;3.55;;;12.20;99.90;;;;;;5015029;28;20129;-72
2022/10/01 04:49:49;;;;;;;4.88;3.80;;;;;;;;;;5011885;28;20124;-73
2022/10/01 04:52:15;;;;;;;5.40;3.83;;;12.00;99.90;;;;;;5031917;28;20049;-72
2022/10/01 04:54:41;;;;;;;4.60;4.07;;;;;;;;;;5014572;28;20510;-73
2022/10/01 04:57:07;;;;;;;4.20;3.80;;;;;;;;;;5032794;28;20049;-73
2022/10/01 04:59:33;;;;;;;4.25;3.83;;;;;;;;;;5032391;28;20049;-72
2022/10/01 05:01:58;;;;;;;4.45;3.92;;;12.10;99.90;;;;;;5014767;28;20041;-72
2022/10/01 05:04:26;;;;;;;4.13;3.72;;;12.10;99.90;;;;;;5029924;28;20037;-72
2022/10/01 05:06:52;;;;;;;4.32;3.92;;;;;;;;;;5032512;28;20033;-73
2022/10/01 05:09:17;;;;;;;7.03;4.28;;;;;;;;;;5032265;28;20512;-73
2022/10/01 05:11:43;;;;;;;5.50;4.72;;;12.30;99.90;;;;;;5014500;28;20049;-72
2022/10/01 05:14:10;;;;;;;7.55;5.47;;;;;;;;;;5013907;28;20043;-72
2022/10/01 05:16:36;;;;;;;7.53;5.18;;;;;;;;;;5032323;28;20498;-73
2022/10/01 05:19:02;;;;;;;6.43;4.97;;;;;;;;;;5014896;28;20120;-72
2022/10/01 05:21:28;;;;;;;7.63;5.38;;;;;;;;;;5026349;28;20068;-73
2022/10/01 05:23:54;;;;;;;5.85;4.95;;;12.30;99.90;;;;;;4994616;28;20450;-72
2022/10/01 05:26:19;;;;;;;7.43;5.72;;;12.40;99.90;;;;;;5012279;28;20065;-72
2022/10/01 05:28:45;;;;;;;6.47;5.20;;;12.60;99.90;;;;;;5012529;28;20092;-72
2022/10/01 05:31:11;;;;;;;6.85;6.05;;;12.50;99.90;;;;;;4994822;28;20531;-73
2022/10/01 05:33:37;;;;;;;8.27;6.57;;;12.50;99.90;;;;;;4978480;28;20492;-72
2022/10/01 05:36:05;;;;;;;11.07;6.15;;;;;;;;;;4994414;28;20046;-73
2022/10/01 05:38:36;;;;;;;9.30;6.05;;;12.40;99.90;;;;;;4995341;28;20133;-72
2022/10/01 05:41:03;;;;;;;5.85;5.15;;;12.50;99.90;;;;;;5012120;28;20061;-72
2022/10/01 05:43:29;;;;;;;8.80;7.40;;;12.50;99.90;;;;;;4994357;28;20044;-72
2022/10/01 05:45:58;;;;;;;15.13;7.22;;;12.70;99.90;;;;;;4978092;28;20555;-72
2022/10/01 05:48:24;;;;;;;8.60;6.35;;;;;;;;;;4994383;28;20491;-72
2022/10/01 05:50:50;;;;;;;8.20;6.95;;;;;;;;;;4994339;28;20124;-73
2022/10/01 05:53:16;;;;;;;9.30;6.72;;;;;;;;;;5011808;28;20049;-72
2022/10/01 05:55:42;;;;;;;9.23;6.43;;;;;;;;;;5012911;28;20042;-72
2022/10/01 05:58:10;;;;;;;13.73;6.65;;;12.60;99.90;;;;;;4994265;28;20078;-72
2022/10/01 06:00:37;;;;;;;11.43;6.03;;;12.60;99.90;;;;;;4993988;28;20041;-73
2022/10/01 06:03:04;;;;;;;10.02;6.15;;;12.70;99.90;;;;;;4994490;28;20042;-72
2022/10/01 06:05:32;;;;;;;11.32;6.43;;;12.60;99.90;;;;;;4993952;28;20038;-72
2022/10/01 06:07:58;;;;;;;14.52;7.38;;;12.90;99.90;;;;;;5008710;28;20037;-72
2022/10/01 06:10:24;;;;;;;10.32;5.85;;;13.40;99.90;;;;;;5013510;28;20091;-72
2022/10/01 06:12:50;;;;;;;12.57;7.30;;;;;;;;;;4993964;28;20470;-72
2022/10/01 06:15:17;;;;;;;10.60;6.47;;;12.80;99.90;;;;;;5011373;28;20042;-72
2022/10/01 06:17:44;;;;;;;9.68;5.85;;;12.80;99.90;;;;;;4994079;28;20046;-73
2022/10/01 06:20:14;;;;;;;15.80;6.38;;;12.90;99.90;;;;;;5011335;28;20046;-72
2022/10/01 06:22:41;;;;;;;14.02;5.93;;;;;;;;;;5007309;28;20040;-71
2022/10/01 06:25:08;;;;;;;13.60;5.43;;;;;;;;;;5012924;28;20111;-74
2022/10/01 06:27:34;;;;;;;14.10;5.57;;;;;;;;;;5026659;28;20034;-72
2022/10/01 06:30:00;;;;;;;15.70;4.75;;;;;;;;;;5010802;28;20090;-73
2022/10/01 06:32:25;;;;;;;11.90;5.30;;;13.10;99.90;;;;;;4995076;28;20644;-72
2022/10/01 06:34:51;;;;;;;15.63;4.97;;;13.20;99.90;;;;;;5012929;28;20045;-71
2022/10/01 06:37:16;;;;;;;11.65;3.85;;;13.20;99.90;;;;;;4996272;28;20041;-71
2022/10/01 06:39:43;;;;;;;19.48;4.18;;;;;;;;;;5012955;28;20053;-76
2022/10/01 06:42:09;;;;;;;10.20;4.10;;;;;;;;;;5012806;28;20408;-72
2022/10/01 06:44:35;;;;;;;17.92;4.00;;;13.10;99.90;;;;;;5034413;28;20033;-71
2022/10/01 06:47:01;;;;;;;12.40;3.42;;;;;;;;;;5034656;28;20033;-72
2022/10/01 06:49:27;;;;;;;11.50;4.15;;;;;;;;;;5016328;28;20484;-73
2022/10/01 06:54:36;;;;;;;14.10;3.95;;;13.00;99.90;;;;;;5016885;28;20053;-72
2022/10/01 06:57:02;;;;;;;9.48;2.65;;;12.90;99.90;;;;;;5015749;28;20503;-73
2022/10/01 06:59:28;;;;;;;10.63;2.67;;;13.20;99.90;;;;;;5033977;28;20041;-73
2022/10/01 07:01:54;;;;;;;11.98;3.40;;;;;;;;;;5015467;28;20037;-71
2022/10/01 07:04:20;;;;;;;8.88;2.88;;;;;;;;;;5033751;28;20041;-72
2022/10/01 07:06:46;;;;;;;10.68;2.58;;;;;;;;;;5014738;28;20040;-72
2022/10/01 07:09:12;;;;;;;10.60;2.70;;;;;;;;;;5034088;28;20029;-74
2022/10/01 07:11:40;;;;;;;4.80;2.42;;;;;;;;;;5016657;28;20041;-73
2022/10/01 07:14:08;;;;;;;11.30;2.53;;;13.00;99.90;;;;;;5033585;28;20110;-73
2022/10/01 07:16:36;;;;;;;12.27;2.55;;;13.00;99.90;;;;;;5032042;28;20064;-73
2022/10/01 07:19:02;;;;;;;8.10;2.97;;;;;;;;;;5032853;28;20037;-72
2022/10/01 07:21:29;;;;;;;11.70;2.05;;;;;;;;;;5013885;28;20044;-73
2022/10/01 07:23:55;;;;;;;12.48;2.10;;;;;;;;;;5015936;28;20034;-74
2022/10/01 07:26:21;;;;;;;7.68;2.17;;;;;;;;;;5033621;28;20037;-74
2022/10/01 07:28:46;;;;;;;9.48;2.58;;;12.90;99.90;;;;;;5015547;28;20435;-73
2022/10/01 07:31:12;;;;;;;11.15;2.80;;;13.20;99.90;;;;;;5015514;28;20103;-73
2022/10/01 07:33:38;;;;;;;11.02;2.78;;;13.20;99.90;;;;;;5016052;28;20053;-73
2022/10/01 07:36:06;;;;;;;11.18;2.30;;;13.20;99.90;;;;;;5028622;28;20034;-72
2022/10/01 07:38:32;;;;;;;6.47;1.70;;;13.40;99.90;;;;;;5012594;28;20088;-73
2022/10/01 07:40:58;;;;;;;8.10;1.95;;;13.20;99.90;;;;;;5015822;28;20037;-73
2022/10/01 07:43:24;;;;;;;5.70;2.20;;;13.30;99.90;;;;;;5034055;28;20037;-73
2022/10/01 07:45:53;;;;;;;13.35;2.95;;;;;;;;;;5034893;28;20038;-72
2022/10/01 07:48:19;;;;;;;5.88;2.25;;;;;;;;;;5016102;28;20049;-72
2022/10/01 07:50:46;;;;;;;7.57;2.38;;;13.50;99.90;;;;;;5033472;28;20102;-72
2022/10/01 07:53:12;;;;;;;4.43;1.65;;;13.50;99.90;;;;;;5012748;28;20045;-72
2022/10/01 07:55:38;;;;;;;7.93;2.33;;;;;;;;;;4999795;28;20389;-72
2022/10/01 07:58:04;;;;;;;7.07;1.90;;;;;;;;;;5022739;28;20037;-71
2022/10/01 08:00:32;;;;;;;10.70;2.30;;;13.90;99.90;;;;;;5011871;28;20124;-71
2022/10/01 08:02:58;;;;;;;12.05;2.30;;;;;;;;;;5010104;28;20025;-71
2022/10/01 08:05:30;;;;;;;10.20;2.03;;;14.10;99.90;;;;;;5008410;28;20502;-73
2022/10/01 08:08:02;;;;;;;12.52;2.83;;;14.20;99.90;;;;;;5026091;28;20163;-72
2022/10/01 08:10:29;;;;;;;13.43;3.33;;;14.30;99.90;;;;;;4997841;28;20483;-72
2022/10/01 08:13:07;;;;;;;14.15;2.78;;;14.60;99.90;;;;;;5013678;28;20037;-72
2022/10/01 08:15:34;;;;;;;11.77;2.67;;;14.70;99.90;;;;;;5013372;28;20045;-72
2022/10/01 08:18:01;;;;;;;13.48;2.72;;;14.90;99.90;;;;;;4995720;28;20048;-73
2022/10/01 08:20:27;;;;;;;12.07;2.63;;;14.80;99.90;;;;;;4979842;28;20060;-72
2022/10/01 08:22:53;;;;;;;20.23;3.45;;;14.70;99.90;;;;;;4996128;28;20033;-73
2022/10/01 08:25:18;;;;;;;15.73;2.92;;;14.70;99.90;;;;;;4996078;28;20038;-73
2022/10/01 08:27:44;;;;;;;15.05;2.92;;;;;;;;;;4995810;28;20523;-74
2022/10/01 08:30:10;;;;;;;23.15;3.58;;;;;;;;;;5013392;28;20116;-74
2022/10/01 08:32:36;;;;;;;12.65;3.08;;;;;;;;;;4995903;28;20473;-74
2022/10/01 08:35:03;;;;;;;22.30;4.30;;;15.00;99.90;;;;;;5013216;28;20083;-73
2022/10/01 08:37:29;;;;;;;14.98;2.97;;;14.80;99.90;;;;;;5013456;28;20046;-73
2022/10/01 08:39:55;;;;;;;14.68;3.35;;;14.60;99.90;;;;;;5030635;28;20045;-73
2022/10/01 08:42:48;;;;;;;15.05;2.45;;;14.50;99.90;;;;;;5023668;28;20120;-73
2022/10/01 08:45:20;;;;;;;12.05;3.95;;;14.40;99.90;;;;;;5012691;28;20041;-73
2022/10/01 08:48:14;;;;;;;11.67;2.40;;;14.60;99.90;;;;;;5013222;28;20041;-73
2022/10/01 08:50:56;;;;;;;10.60;3.08;;;14.30;99.90;;;;;;4988083;28;20054;-73
2022/10/01 08:53:30;;;;;;;13.52;2.45;;;14.30;99.90;;;;;;5010965;28;20506;-73
2022/10/01 08:55:58;;;;;;;11.73;2.75;;;14.10;99.90;;;;;;5014680;28;20041;-73
2022/10/01 08:58:30;;;;;;;10.50;2.20;;;14.10;99.90;;;;;;5011378;28;20042;-74
2022/10/01 09:00:56;;;;;;;11.75;2.22;;;;;;;;;;5003501;28;20388;-73
2022/10/01 09:03:22;;;;;;;6.82;1.63;;;;;;;;;;5031739;28;20051;-71
2022/10/01 09:06:19;;;;;;;9.98;1.98;;;14.30;99.90;;;;;;5032029;28;20041;-73
2022/10/01 09:08:48;;;;;;;10.63;2.03;;;14.20;99.90;;;;;;5014284;28;20037;-72
2022/10/01 09:11:28;;;;;;;12.48;1.85;;;14.30;99.90;;;;;;5014419;28;20439;-72
2022/10/01 09:14:42;;;;;;;8.98;1.52;;;14.70;99.90;;;;;;5028817;28;20041;-73
2022/10/01 09:17:22;;;;;;;;;;;14.70;99.90;;;;;;4991010;28;20411;-74
2022/10/01 09:19:56;;;;;;;13.60;2.15;;;14.80;99.90;;;;;;5014158;28;19921;-72
2022/10/01 09:22:24;;;;;;;15.40;2.88;;;;;;;;;;5030307;28;20124;-72
2022/10/01 09:25:01;;;;;;;8.18;2.15;;;15.30;99.90;;;;;;5012339;28;20041;-72
2022/10/01 09:27:28;;;;;;;15.35;2.60;;;;;;;;;;5029583;28;20033;-72
2022/10/01 09:30:01;;;;;;;13.73;2.35;;;15.10;99.90;;;;;;5013910;28;20037;-72
2022/10/01 09:32:43;;;;;;;10.35;2.63;;;15.20;99.90;;;;;;5010833;28;20419;-72
2022/10/01 09:35:23;;;;;;;10.65;2.30;;;15.30;99.90;;;;;;5013889;28;20499;-72
2022/10/01 09:37:58;;;;;;;9.85;2.13;;;15.20;99.90;;;;;;5032006;28;20522;-72
2022/10/01 09:40:28;;;;;;;13.00;2.97;;;15.10;99.90;;;;;;5031476;28;20526;-74
2022/10/01 09:42:54;;;;;;;13.32;2.30;;;;;;;;;;5027747;28;20037;-74
2022/10/01 09:45:21;;;;;;;15.55;2.95;;;14.70;99.90;;;;;;5010756;28;20816;-73
2022/10/01 09:47:50;;;;;;;10.57;2.03;;;14.90;99.90;;;;;;5003770;28;20537;-73
2022/10/01 09:50:24;;;;;;;11.85;2.47;;;14.70;99.90;;;;;;5007905;28;20045;-74
2022/10/01 09:52:51;;;;;;;9.15;1.55;;;14.00;99.90;;;;;;5028485;28;20503;-73
2022/10/01 09:55:25;;;;;;;8.05;2.13;;;13.90;99.90;;;;;;5006528;28;20663;-75
2022/10/01 09:58:06;;;;;;;7.47;1.80;;;13.70;99.90;;;;;;5022692;28;20048;-74
2022/10/01 10:00:33;;;;;;;9.57;1.88;;;;;;;;;;5013641;28;20129;-73
2022/10/01 10:02:59;;;;;;;10.48;1.75;;;13.60;99.90;;;;;;5028390;28;20420;-74
2022/10/01 10:05:27;;;;;;;5.43;1.60;;;13.60;99.90;;;;;;5013656;28;20121;-73
2022/10/01 10:08:04;;;;;;;9.55;1.98;;;13.70;99.90;;;;;;5013316;28;20052;-74
2022/10/01 10:10:38;;;;;;;9.45;1.75;;;13.90;99.90;;;;;;5032227;28;20041;-74
2022/10/01 10:13:26;;;;;;;7.20;1.52;;;13.70;99.90;;;;;;5034292;28;20094;-72
2022/10/01 10:15:56;;;;;;;8.23;1.50;;;13.80;99.90;;;;;;5040617;28;20044;-73
2022/10/01 10:18:28;;;;;;;7.30;2.25;;;14.00;99.90;;;;;;5056384;28;20041;-71
2022/10/01 10:20:54;;;;;;;10.05;2.17;;;;;;;;;;5034407;28;20129;-72
2022/10/01 10:23:25;;;;;;;7.63;2.50;;;14.20;99.90;;;;;;5012248;28;20045;-72
2022/10/01 10:25:54;;;;;;;7.15;1.98;;;14.10;99.90;;;;;;4998536;28;20038;-73
2022/10/01 10:28:22;;;;;;;10.38;1.70;;;14.30;99.90;;;;;;4998519;28;20590;-74
2022/10/01 10:30:54;;;;;;;8.65;1.63;;;14.20;99.90;;;;;;4998873;28;20065;-73
2022/10/01 10:33:22;;;;;;;8.65;1.70;;;14.50;99.90;;;;;;4998600;28;20069;-73
2022/10/01 10:36:05;;;;;;;11.95;2.25;;;14.40;99.90;;;;;;4997979;28;20121;-73
2022/10/01 10:38:33;;;;;;;14.02;3.17;;;14.40;99.90;;;;;;5016340;28;20044;-73
2022/10/01 10:41:00;;;;;;;18.45;2.42;;;;;;;;;;5035177;28;20046;-72
2022/10/01 10:43:30;;;;;;;14.00;2.67;;;14.50;99.90;;;;;;5035297;28;20037;-75
2022/10/01 10:45:57;;;;;;;10.73;2.60;;;14.50;99.90;;;;;;5034843;28;20091;-72
2022/10/01 10:48:31;;;;;;;12.82;2.38;;;14.60;99.90;;;;;;5017510;28;20124;-72
2022/10/01 10:51:03;;;;;;;10.98;2.25;;;14.50;99.90;;;;;;5029619;28;20048;-72
2022/10/01 10:53:38;;;;;;;14.75;3.22;;;14.60;99.90;;;;;;4998019;28;20042;-72
2022/10/01 10:56:05;;;;;;;14.55;2.83;;;15.00;99.90;;;;;;4997740;28;20046;-73
2022/10/01 10:58:32;;;;;;;10.35;2.60;;;14.70;99.90;;;;;;5015255;28;20038;-73
2022/10/01 11:01:03;;;;;;;16.42;3.20;;;14.60;99.90;;;;;;4981348;28;20046;-74
2022/10/01 11:03:30;;;;;;;14.85;2.28;;;14.70;99.90;;;;;;5015223;28;20037;-73
2022/10/01 11:06:07;;;;;;;11.95;2.28;;;15.10;99.90;;;;;;4997182;28;20042;-75
2022/10/01 11:08:34;;;;;;;18.40;2.90;;;15.20;99.90;;;;;;5016238;28;20446;-73
2022/10/01 11:11:14;;;;;;;16.27;3.33;;;15.00;99.90;;;;;;4997210;28;20099;-72
2022/10/01 11:14:28;;;;;;;20.40;3.13;;;15.20;99.90;;;;;;4997549;28;20508;-72
2022/10/01 11:17:17;;;;;;;20.65;3.22;;;15.30;99.90;;;;;;5009155;28;20165;-74
2022/10/01 11:20:13;;;;;;;13.23;2.40;;;15.10;99.90;;;;;;5014744;28;20524;-73
2022/10/01 11:22:39;;;;;;;12.60;2.10;;;;;;;;;;4997249;28;20034;-73
2022/10/01 11:25:59;;;;;;;14.30;2.72;;;15.50;99.90;;;;;;5015419;28;20033;-73
2022/10/01 11:28:44;;;;;;;16.20;2.22;;;15.70;99.90;;;;;;4997348;28;20042;-73
2022/10/01 11:31:45;;;;;;;17.23;2.20;;;15.50;99.90;;;;;;5004619;28;20087;-73
2022/10/01 11:34:26;;;;;;;18.00;4.28;;;15.90;99.90;;;;;;5034198;28;20084;-72
2022/10/01 11:37:11;;;;;;;14.00;2.13;;;15.90;99.90;;;;;;5016755;28;20109;-73
2022/10/01 11:39:41;;;;;;;9.48;2.13;;;15.70;99.90;;;;;;5015015;28;20034;-76
2022/10/01 11:42:14;;;;;;;10.43;1.80;;;15.50;99.90;;;;;;5028352;28;20073;-72
2022/10/01 11:44:49;;;;;;;11.38;1.80;;;15.40;99.90;;;;;;5033572;28;20064;-73
2022/10/01 11:47:22;;;;;;;9.45;1.90;;;15.50;99.90;;;;;;5031995;28;20041;-73
2022/10/01 11:50:17;;;;;;;11.80;2.30;;;15.40;99.90;;;;;;5015092;28;20072;-74
2022/10/01 11:52:43;;;;;;;12.23;2.75;;;;;;;;;;4992548;28;20236;-73
2022/10/01 12:01:14;;;;;;;14.43;2.35;;;15.60;99.90;;;;;;5017187;28;20139;-74
2022/10/01 12:04:18;;;;;;;9.73;2.05;;;15.40;99.90;;;;;;5023927;28;20041;-72
2022/10/01 12:06:56;;;;;;;8.85;1.65;;;15.50;99.90;;;;;;5001690;28;20557;-72
2022/10/01 12:09:52;;;;;;;5.60;1.38;;;15.80;99.90;;;;;;5016253;28;20103;-75
2022/10/01 12:12:23;;;;;;;11.15;1.73;;;15.90;99.90;;;;;;5007316;28;20064;-74
2022/10/01 12:14:55;;;;;;;6.43;1.20;;;15.70;99.90;;;;;;5010475;28;20037;-73
2022/10/01 12:17:32;;;;;;;11.50;1.92;;;15.80;99.90;;;;;;5012198;28;20056;-74
2022/10/01 12:20:02;;;;;;;5.10;1.60;;;15.60;99.90;;;;;;5001231;28;20053;-73
2022/10/01 12:22:36;;;;;;;7.88;1.48;;;15.70;99.90;;;;;;5023169;28;20458;-72
2022/10/01 12:25:02;;;;;;;11.13;2.00;;;15.80;99.90;;;;;;4997401;28;20037;-73
2022/10/01 12:27:55;;;;;;;9.25;2.33;;;16.00;99.90;;;;;;4996701;28;20060;-73
2022/10/01 12:30:24;;;;;;;9.07;1.95;;;16.10;99.90;;;;;;5017808;28;20050;-73
2022/10/01 12:32:59;;;;;;;16.10;2.15;;;15.90;99.90;;;;;;5003878;28;20045;-73
2022/10/01 12:35:46;;;;;;;13.70;2.30;;;16.10;99.90;;;;;;5012815;28;20046;-73
2022/10/01 12:38:46;;;;;;;18.40;2.35;;;15.90;99.90;;;;;;5011025;28;20076;-74
2022/10/01 12:41:23;;;;;;;10.82;2.88;;;16.10;99.90;;;;;;4997093;28;20045;-74
2022/10/01 12:44:07;;;;;;;13.13;2.40;;;15.70;99.90;;;;;;5030765;28;20034;-76
2022/10/01 12:46:56;;;;;;;12.40;2.38;;;15.00;99.90;;;;;;5029148;28;20550;-74
2022/10/01 12:49:34;;;;;;;5.10;1.48;;;14.50;99.90;;;;;;5029206;28;20061;-74
2022/10/01 12:52:29;;;;;;;5.10;1.23;;;14.60;99.90;;;;;;4995878;28;20410;-75
2022/10/01 12:55:17;;;;;;;4.20;0.98;;;14.40;99.90;;;;;;4998035;28;20106;-74
2022/10/01 12:58:02;;;;;;;7.38;1.40;;;15.00;99.90;;;;;;4998612;28;20055;-74
2022/10/01 13:00:39;;;;;;;8.55;1.77;;;15.20;99.90;;;;;;5031682;28;20046;-72
2022/10/01 13:03:17;;;;;;;6.05;1.90;;;15.30;99.90;;;;;;5032645;28;20037;-73
2022/10/01 13:05:51;;;;;;;12.82;2.35;;;15.70;99.90;;;;;;5015162;28;20045;-74
2022/10/01 13:08:16;;;;;;;12.50;2.83;;;15.90;99.90;;;;;;5014179;28;20076;-73
2022/10/01 13:10:50;;;;;;;9.20;2.17;;;15.90;99.90;;;;;;5014388;28;20127;-74
2022/10/01 13:13:33;;;;;;;9.70;2.53;;;15.90;99.90;;;;;;5014357;28;20503;-72
2022/10/01 13:15:59;;;;;;;9.97;1.90;;;;;;;;;;4995833;28;20041;-73
2022/10/01 13:18:51;;;;;;;14.75;2.08;;;15.80;99.90;;;;;;5014351;28;20052;-73
2022/10/01 13:21:36;;;;;;;10.82;2.30;;;16.20;99.90;;;;;;5028877;28;20045;-73
2022/10/01 13:24:26;;;;;;;14.88;2.50;;;16.20;99.90;;;;;;5009468;28;20096;-73
2022/10/01 13:27:13;;;;;;;20.88;3.55;;;16.40;99.90;;;;;;5031035;28;20037;-72
2022/10/01 13:29:54;;;;;;;17.60;2.67;;;16.10;99.90;;;;;;5028857;28;20061;-73
2022/10/01 13:32:25;;;;;;;10.10;2.40;;;16.00;99.90;;;;;;5014474;28;20065;-73
2022/10/01 13:34:51;;;;;;;15.20;2.88;;;16.30;99.90;;;;;;5031894;28;20654;-73
2022/10/01 13:37:30;;;;;;;11.40;2.00;;;;;;;;;;5014555;28;20503;-73
2022/10/01 13:40:04;;;;;;;14.98;3.85;;;16.30;99.90;;;;;;5032189;28;20048;-72